Flight Track Log - Related Links

Times and Time Zones

All times are in EDT time to prevent confusion due to time zone crossing. See the SWA2058 flight status page for this flight to view local times or setup timezone preferences in your user account.

Time Position Orientation Groundspeed Altitude Reporting Facility
EDT Latitude Longitude Course Direction KTS MPH feet Rate Location/Type
Sat 03:10:33 PM 36.9350 -76.1531 45° Northeast 208 239 2,100  Level Washington Center
Sat 03:11:34 PM 36.8892 -76.1425 170° South 223 257 4,300 1,359 Climbing Washington Center
Sat 03:12:41 PM 36.8306 -76.1992 218° Southwest 271 312 5,000 984 Climbing Washington Center
Sat 03:13:42 PM 36.7781 -76.2611 223° Southwest 260 299 6,400 1,884 Climbing Washington Center
Sat 03:14:42 PM 36.7256 -76.3072 215° Southwest 279 321 8,800 2,471 Climbing Washington Center
Sat 03:15:41 PM 36.6667 -76.3842 226° Southwest 279 321 11,300 2,750 Climbing Washington Center
Sat 03:16:42 PM 36.6222 -76.4797 240° Southwest 297 342 14,300 2,926 Climbing Washington Center
Sat 03:17:42 PM 36.5775 -76.5853 242° Southwest 322 371 17,200 2,797 Climbing Washington Center
Sat 03:18:40 PM 36.5328 -76.6958 243° Southwest 345 397 19,800 2,593 Climbing Washington Center
Sat 03:19:40 PM 36.4836 -76.8086 242° Southwest 365 420 22,300 1,587 Climbing Washington Center
Sat 03:20:41 PM 36.4075 -76.9056 226° Southwest 377 434 23,000 344 Climbing Washington Center
Sat 03:21:42 PM 36.3314 -76.9972 224° Southwest 383 441 23,000  Level Washington Center
Sat 03:22:42 PM 36.2428 -77.0806 217° Southwest 393 452 23,000 864 Level Washington Center
Sat 03:23:40 PM 36.1603 -77.1614 218° Southwest 398 458 24,700 1,525 Climbing Washington Center
Sat 03:24:40 PM 36.0694 -77.2442 216° Southwest 398 458 26,000 645 Climbing Washington Center
Sat 03:25:41 PM 35.9744 -77.3322 217° Southwest 416 479 26,000  Level Washington Center
Sat 03:26:42 PM 35.8792 -77.4172 216° Southwest 422 486 26,000  Level Washington Center
Sat 03:27:40 PM 35.7861 -77.5022 217° Southwest 422 486 26,000 712 Level Washington Center
Sat 03:28:40 PM 35.6908 -77.5894 217° Southwest 422 486 27,400 1,636 Climbing Washington Center
Sat 03:29:41 PM 35.5933 -77.6789 217° Southwest 429 494 29,300 1,672 Climbing Washington Center
Sat 03:30:42 PM 35.5064 -77.7583 217° Southwest 434 499 30,800 1,714 Climbing Washington Center
Sat 03:31:40 PM 35.4067 -77.8447 215° Southwest 439 505 32,700 1,664 Climbing Washington Center
Sat 03:32:41 PM 35.3089 -77.9336 217° Southwest 439 505 34,100 1,500 Climbing Washington Center
Sat 03:33:40 PM 35.2111 -78.0222 217° Southwest 445 512 35,700 1,550 Climbing Washington Center
Sat 03:34:41 PM 35.1092 -78.1106 215° Southwest 445 512 37,200 1,323 Climbing Washington Center
Sat 03:36:55 PM 34.8797 -78.3175 217° Southwest 430 495 40,000 866 Climbing Jacksonville Center
Sat 03:37:55 PM 34.7831 -78.4061 217° Southwest 430 495 40,000  Level Jacksonville Center
Sat 03:38:55 PM 34.6839 -78.4919 215° Southwest 435 501 40,000  Level Jacksonville Center
Sat 03:39:55 PM 34.5969 -78.5722 217° Southwest 435 501 40,000  Level Jacksonville Center
Sat 03:40:55 PM 34.4917 -78.6706 218° Southwest 435 501 40,000  Level Jacksonville Center
Sat 03:41:55 PM 34.3906 -78.7611 216° Southwest 445 512 40,000  Level Jacksonville Center
Sat 03:42:55 PM 34.2931 -78.8461 216° Southwest 445 512 40,000 -200 Level Jacksonville Center
Sat 03:43:55 PM 34.1981 -78.9383 219° Southwest 445 512 39,600 -700 Descending Jacksonville Center
Sat 03:44:55 PM 34.1114 -79.0428 225° Southwest 445 512 38,600 -800 Descending Jacksonville Center
Sat 03:45:55 PM 34.0272 -79.1517 227° Southwest 445 512 38,000 -300 Descending Jacksonville Center
Sat 03:46:55 PM 33.9447 -79.2603 228° Southwest 445 512 38,000 -100 Level Jacksonville Center
Sat 03:47:55 PM 33.8603 -79.3689 227° Southwest 445 512 37,800 -600 Descending Jacksonville Center
Sat 03:48:55 PM 33.7839 -79.4717 228° Southwest 433 498 36,800 -900 Descending Jacksonville Center
Sat 03:49:55 PM 33.6989 -79.5800 227° Southwest 433 498 36,000 -400 Descending Jacksonville Center
Sat 03:50:55 PM 33.6119 -79.6831 225° Southwest 438 504 36,000  Level Jacksonville Center
Sat 03:51:55 PM 33.5183 -79.7811 221° Southwest 443 510 36,000 -350 Level Jacksonville Center
Sat 03:52:55 PM 33.4247 -79.8789 221° Southwest 448 516 35,300 -800 Descending Jacksonville Center
Sat 03:53:55 PM 33.3333 -79.9789 222° Southwest 454 522 34,400 -950 Descending Jacksonville Center
Sat 03:54:55 PM 33.2394 -80.0764 221° Southwest 454 522 33,400 -950 Descending Jacksonville Center
Sat 03:55:55 PM 33.1394 -80.1786 221° Southwest 460 529 32,500 -1,250 Descending Jacksonville Center
Sat 03:56:55 PM 33.0433 -80.2783 221° Southwest 465 535 30,900 -1,250 Descending Jacksonville Center
Sat 03:57:55 PM 32.9556 -80.3700 221° Southwest 447 514 30,000 -450 Descending Jacksonville Center
Sat 03:58:55 PM 32.8656 -80.4639 221° Southwest 453 521 30,000  Level Jacksonville Center
Sat 03:59:55 PM 32.7714 -80.5603 221° Southwest 453 521 30,000  Level Jacksonville Center
Sat 04:00:55 PM 32.6750 -80.6592 221° Southwest 453 521 30,000 -150 Level Jacksonville Center
Sat 04:01:55 PM 32.5786 -80.7575 221° Southwest 453 521 29,700 -700 Descending Jacksonville Center
Sat 04:02:55 PM 32.4756 -80.8339 212° Southwest 447 514 28,600 -1,100 Descending Jacksonville Center
Sat 04:03:55 PM 32.3722 -80.8978 208° Southwest 421 484 27,500 -1,100 Descending Jacksonville Center
Sat 04:04:55 PM 32.2564 -80.9667 207° Southwest 421 484 26,400 -1,000 Descending Jacksonville Center
Sat 04:05:55 PM 32.1550 -81.0275 207° Southwest 414 476 25,500 -950 Descending Jacksonville Center
Sat 04:06:55 PM 32.0617 -81.0833 207° Southwest 414 476 24,500 -1,000 Descending Jacksonville Center
Sat 04:07:55 PM 31.9603 -81.1442 207° Southwest 414 476 23,500 -1,050 Descending Jacksonville Center
Sat 04:08:55 PM 31.8506 -81.2050 205° Southwest 403 464 22,400 -1,000 Descending Jacksonville Center
Sat 04:09:55 PM 31.7547 -81.2336 194° South 393 452 21,500 -1,000 Descending Jacksonville Center
Sat 04:10:55 PM 31.6406 -81.2697 195° South 388 447 20,400 -1,050 Descending Jacksonville Center
Sat 04:11:55 PM 31.5406 -81.2983 194° South 388 447 19,400 -1,000 Descending Jacksonville Center
Sat 04:12:55 PM 31.4511 -81.3242 194° South 378 435 18,400 -1,600 Descending Jacksonville Center
Sat 04:13:55 PM 31.3450 -81.3625 197° South 366 421 16,200 -2,100 Descending Jacksonville Center
Sat 04:14:55 PM 31.2514 -81.3883 193° South 358 412 14,200 -1,934 Descending Jacksonville Center
Sat 04:15:56 PM 31.1578 -81.4142 193° South 330 380 12,300 -1,800 Descending Jacksonville Center
Sat 04:16:55 PM 31.0767 -81.4419 196° South 328 377 10,600 -1,109 Descending Jacksonville Center
Sat 04:17:55 PM 31.0061 -81.4867 209° Southwest 309 356 10,100 -300 Descending Jacksonville Center
Sat 04:18:55 PM 30.9419 -81.5264 208° Southwest 282 325 10,000 -900 Descending Jacksonville Center
Sat 04:19:55 PM 30.8842 -81.5806 219° Southwest 274 315 8,300 -1,550 Descending Jacksonville Center
Sat 04:20:55 PM 30.8325 -81.6442 227° Southwest 274 315 6,900 -1,400 Descending Jacksonville Center
Sat 04:21:55 PM 30.7808 -81.7078 227° Southwest 274 315 5,500 -1,400 Descending Jacksonville Center
Sat 04:22:55 PM 30.7314 -81.7664 226° Southwest 274 315 4,100 -1,000 Descending Jacksonville Center
Sat 04:23:55 PM 30.6753 -81.8153 217° Southwest 268 308 3,500 -700 Descending Jacksonville Center
Sat 04:24:55 PM 30.6211 -81.8183 183° South 219 252 2,700 -698 Descending Jacksonville Center
Sat 04:26:04 PM 30.5644 -81.7947 160° South 166 191 2,000 -629 Descending Jacksonville Center
Sat 04:26:59 PM 30.5372 -81.7686 140° Southeast 139 160 1,400 -655 Descending Jacksonville Center
Sat 04:28:00 PM 30.4941 -81.6879 109° East  Level Estimated
Sat 04:35:00 PM 30.4941 -81.6879 311° West  Level Estimated
Sat 04:36:00 PM 30.4941 -81.6879 311° West  Level Estimated
Sat 04:37:00 PM 30.4941 -81.6879 311° West  Level Estimated

Login

Don't have an account? Register now (free) for customized features, flight alerts, and more!